createdAt,value
2023-04-23T00:14:05.080Z,1012.45
2023-04-23T00:43:05.128Z,1012.49
2023-04-23T01:12:06.982Z,1012.5
2023-04-23T01:41:07.345Z,1012.54
2023-04-23T02:09:55.720Z,1012.43
2023-04-23T02:38:50.759Z,1012.25
2023-04-23T03:07:52.606Z,1012.47
2023-04-23T03:36:53.898Z,1012.42
2023-04-23T04:05:54.192Z,1012.31
2023-04-23T04:34:45.315Z,1012.21
2023-04-23T05:03:34.616Z,1012.32
2023-04-23T05:32:22.341Z,1012.27
2023-04-23T06:01:22.732Z,1012.18
2023-04-23T06:30:17.791Z,1012.12
2023-04-23T06:59:18.771Z,1011.84
2023-04-23T07:28:16.942Z,1011.59
2023-04-23T07:56:55.782Z,1011.21
2023-04-23T08:25:52.000Z,1010.78
2023-04-23T08:54:46.217Z,1010.74
2023-04-23T09:23:34.408Z,1010.38
2023-04-23T09:52:12.235Z,1010.07
2023-04-23T10:21:03.088Z,1009.78
2023-04-23T10:49:45.180Z,1009.39
2023-04-23T11:18:41.925Z,1008.96
2023-04-23T11:47:30.900Z,1008.62
2023-04-23T12:45:05.331Z,1007.74
2023-04-23T13:13:59.662Z,1007.28
2023-04-23T13:42:40.785Z,1006.77
2023-04-23T14:11:31.420Z,1006.22
2023-04-23T14:40:11.726Z,1005.96
2023-04-23T15:09:05.529Z,1005.95
2023-04-23T15:37:47.563Z,1006.49
2023-04-23T16:06:48.040Z,1006.76
2023-04-23T16:35:40.499Z,1006.89
2023-04-23T17:04:41.537Z,1006.88
2023-04-23T17:33:11.963Z,1006.87
2023-04-23T18:01:58.784Z,1007.97
2023-04-23T18:30:42.688Z,1008.46
2023-04-23T18:59:20.638Z,1008.63
2023-04-23T19:28:14.918Z,1008.5
2023-04-23T19:57:00.636Z,1008.53
2023-04-23T20:25:46.172Z,1008.45
2023-04-23T20:54:41.623Z,1008.66
2023-04-23T21:23:40.994Z,1008.5
2023-04-23T21:52:40.351Z,1008.29
2023-04-23T22:21:33.697Z,1008.06
2023-04-23T22:50:21.586Z,1007.99
2023-04-23T23:19:15.902Z,1008.01
2023-04-23T23:48:13.217Z,1007.69
